Terminal Aerodrome Forecast
Issued by NWS Cleveland, OH

Home | Current Version | Previous Version | Text Only | Print | Product List | Glossary On
Versions: 1 2 3 4 5 6 7 8 9 10 11 12 13 14 15 16 17 18 19 20 21
343
FTUS41 KCLE 301258 AAB
TAFTOL
TAF AMD
KTOL 301258Z 3013/3112 02004KT P6SM SCT008 BKN030
      TEMPO 3013/3015 BKN008
     FM302200 VRB03KT P6SM VCTS OVC035CB
     FM310200 VRB02KT P6SM SCT250
     FM311000 VRB02KT 3SM BR OVC010=

USA.gov is the U.S. government's official web portal to all federal, state and local government web resources and services.